sensor_id;sensor_type;location;lat;lon;timestamp;P1;durP1;ratioP1;P2;durP2;ratioP2
11962;SDS011;62678;52.130;5.584;2023-04-24T00:00:31;3.30;;;1.60;;
11962;SDS011;62678;52.130;5.584;2023-04-24T00:03:03;3.20;;;2.00;;
11962;SDS011;62678;52.130;5.584;2023-04-24T00:05:32;3.35;;;1.90;;
11962;SDS011;62678;52.130;5.584;2023-04-24T00:08:00;2.47;;;2.28;;
11962;SDS011;62678;52.130;5.584;2023-04-24T00:10:27;3.15;;;2.95;;
11962;SDS011;62678;52.130;5.584;2023-04-24T00:12:54;3.80;;;3.40;;
11962;SDS011;62678;52.130;5.584;2023-04-24T00:15:21;4.35;;;3.95;;
11962;SDS011;62678;52.130;5.584;2023-04-24T00:17:49;5.63;;;5.07;;
11962;SDS011;62678;52.130;5.584;2023-04-24T00:20:17;6.25;;;5.53;;
11962;SDS011;62678;52.130;5.584;2023-04-24T00:22:46;6.35;;;5.78;;
11962;SDS011;62678;52.130;5.584;2023-04-24T00:25:13;6.07;;;5.50;;
11962;SDS011;62678;52.130;5.584;2023-04-24T00:27:40;6.95;;;6.30;;
11962;SDS011;62678;52.130;5.584;2023-04-24T00:30:08;7.55;;;6.80;;
11962;SDS011;62678;52.130;5.584;2023-04-24T00:32:35;8.15;;;7.32;;
11962;SDS011;62678;52.130;5.584;2023-04-24T00:35:03;7.97;;;6.93;;
11962;SDS011;62678;52.130;5.584;2023-04-24T00:37:31;7.78;;;7.07;;
11962;SDS011;62678;52.130;5.584;2023-04-24T00:40:00;7.07;;;6.45;;
11962;SDS011;62678;52.130;5.584;2023-04-24T00:42:27;6.70;;;6.10;;
11962;SDS011;62678;52.130;5.584;2023-04-24T00:44:55;6.63;;;5.85;;
11962;SDS011;62678;52.130;5.584;2023-04-24T00:47:23;6.70;;;6.10;;
11962;SDS011;62678;52.130;5.584;2023-04-24T00:49:51;7.05;;;6.25;;
11962;SDS011;62678;52.130;5.584;2023-04-24T00:52:19;7.50;;;5.72;;
11962;SDS011;62678;52.130;5.584;2023-04-24T00:54:49;6.78;;;6.10;;
11962;SDS011;62678;52.130;5.584;2023-04-24T00:57:18;6.82;;;5.97;;
11962;SDS011;62678;52.130;5.584;2023-04-24T00:59:45;8.15;;;6.10;;
11962;SDS011;62678;52.130;5.584;2023-04-24T01:02:12;7.40;;;6.35;;
11962;SDS011;62678;52.130;5.584;2023-04-24T01:04:40;6.40;;;5.57;;
11962;SDS011;62678;52.130;5.584;2023-04-24T01:07:08;6.57;;;5.97;;
11962;SDS011;62678;52.130;5.584;2023-04-24T01:09:36;7.22;;;6.55;;
11962;SDS011;62678;52.130;5.584;2023-04-24T01:12:05;7.55;;;6.75;;
11962;SDS011;62678;52.130;5.584;2023-04-24T01:14:35;8.50;;;7.53;;
11962;SDS011;62678;52.130;5.584;2023-04-24T01:17:03;11.00;;;7.93;;
11962;SDS011;62678;52.130;5.584;2023-04-24T01:19:31;9.23;;;8.25;;
11962;SDS011;62678;52.130;5.584;2023-04-24T01:21:58;9.35;;;8.43;;
11962;SDS011;62678;52.130;5.584;2023-04-24T01:24:29;8.70;;;8.00;;
11962;SDS011;62678;52.130;5.584;2023-04-24T01:26:56;9.48;;;8.55;;
11962;SDS011;62678;52.130;5.584;2023-04-24T01:29:24;10.57;;;9.25;;
11962;SDS011;62678;52.130;5.584;2023-04-24T01:31:51;10.65;;;9.18;;
11962;SDS011;62678;52.130;5.584;2023-04-24T01:34:18;9.30;;;8.40;;
11962;SDS011;62678;52.130;5.584;2023-04-24T01:36:45;10.40;;;9.38;;
11962;SDS011;62678;52.130;5.584;2023-04-24T01:39:13;9.88;;;8.90;;
11962;SDS011;62678;52.130;5.584;2023-04-24T01:41:43;12.25;;;10.45;;
11962;SDS011;62678;52.130;5.584;2023-04-24T01:44:10;11.25;;;10.07;;
11962;SDS011;62678;52.130;5.584;2023-04-24T01:46:37;11.10;;;9.98;;
11962;SDS011;62678;52.130;5.584;2023-04-24T01:49:05;11.45;;;10.43;;
11962;SDS011;62678;52.130;5.584;2023-04-24T01:51:32;12.00;;;10.80;;
11962;SDS011;62678;52.130;5.584;2023-04-24T01:54:02;12.75;;;11.05;;
11962;SDS011;62678;52.130;5.584;2023-04-24T01:56:30;15.68;;;12.10;;
11962;SDS011;62678;52.130;5.584;2023-04-24T01:59:03;12.50;;;11.23;;
11962;SDS011;62678;52.130;5.584;2023-04-24T02:01:33;13.30;;;12.00;;
11962;SDS011;62678;52.130;5.584;2023-04-24T02:04:02;12.43;;;11.13;;
11962;SDS011;62678;52.130;5.584;2023-04-24T02:06:29;12.45;;;11.25;;
11962;SDS011;62678;52.130;5.584;2023-04-24T02:08:57;11.52;;;10.43;;
11962;SDS011;62678;52.130;5.584;2023-04-24T02:11:24;9.90;;;8.85;;
11962;SDS011;62678;52.130;5.584;2023-04-24T02:13:52;8.65;;;7.85;;
11962;SDS011;62678;52.130;5.584;2023-04-24T02:16:20;7.00;;;6.40;;
11962;SDS011;62678;52.130;5.584;2023-04-24T02:18:47;5.25;;;4.85;;
11962;SDS011;62678;52.130;5.584;2023-04-24T02:21:15;4.07;;;3.78;;
11962;SDS011;62678;52.130;5.584;2023-04-24T02:23:42;4.20;;;3.90;;
11962;SDS011;62678;52.130;5.584;2023-04-24T02:26:09;4.55;;;4.25;;
11962;SDS011;62678;52.130;5.584;2023-04-24T02:28:37;6.40;;;5.90;;
11962;SDS011;62678;52.130;5.584;2023-04-24T02:31:04;7.60;;;6.97;;
11962;SDS011;62678;52.130;5.584;2023-04-24T02:33:33;9.38;;;8.55;;
11962;SDS011;62678;52.130;5.584;2023-04-24T02:36:00;10.07;;;9.05;;
11962;SDS011;62678;52.130;5.584;2023-04-24T02:38:28;11.55;;;9.68;;
11962;SDS011;62678;52.130;5.584;2023-04-24T02:40:55;9.70;;;8.80;;
11962;SDS011;62678;52.130;5.584;2023-04-24T02:43:22;9.40;;;8.50;;
11962;SDS011;62678;52.130;5.584;2023-04-24T02:45:49;8.80;;;7.90;;
11962;SDS011;62678;52.130;5.584;2023-04-24T02:48:16;10.02;;;8.07;;
11962;SDS011;62678;52.130;5.584;2023-04-24T02:50:45;9.75;;;8.75;;
11962;SDS011;62678;52.130;5.584;2023-04-24T02:53:12;9.95;;;8.95;;
11962;SDS011;62678;52.130;5.584;2023-04-24T02:55:39;10.15;;;9.23;;
11962;SDS011;62678;52.130;5.584;2023-04-24T02:58:06;10.52;;;8.88;;
11962;SDS011;62678;52.130;5.584;2023-04-24T03:00:34;10.10;;;9.20;;
11962;SDS011;62678;52.130;5.584;2023-04-24T03:03:01;9.95;;;8.95;;
11962;SDS011;62678;52.130;5.584;2023-04-24T03:05:28;10.23;;;9.23;;
11962;SDS011;62678;52.130;5.584;2023-04-24T03:07:57;10.63;;;9.52;;
11962;SDS011;62678;52.130;5.584;2023-04-24T03:10:24;10.57;;;9.10;;
11962;SDS011;62678;52.130;5.584;2023-04-24T03:12:51;9.23;;;8.32;;
11962;SDS011;62678;52.130;5.584;2023-04-24T03:15:20;9.30;;;8.07;;
11962;SDS011;62678;52.130;5.584;2023-04-24T03:17:47;7.68;;;6.90;;
11962;SDS011;62678;52.130;5.584;2023-04-24T03:20:14;7.65;;;6.93;;
11962;SDS011;62678;52.130;5.584;2023-04-24T03:22:41;7.20;;;6.50;;
11962;SDS011;62678;52.130;5.584;2023-04-24T03:25:10;8.38;;;7.43;;
11962;SDS011;62678;52.130;5.584;2023-04-24T03:27:37;9.77;;;7.03;;
11962;SDS011;62678;52.130;5.584;2023-04-24T03:30:04;9.02;;;7.78;;
11962;SDS011;62678;52.130;5.584;2023-04-24T03:32:33;8.65;;;7.65;;
11962;SDS011;62678;52.130;5.584;2023-04-24T03:35:00;9.85;;;8.48;;
11962;SDS011;62678;52.130;5.584;2023-04-24T03:37:28;12.20;;;8.65;;
11962;SDS011;62678;52.130;5.584;2023-04-24T03:39:55;9.32;;;8.35;;
11962;SDS011;62678;52.130;5.584;2023-04-24T03:42:24;12.80;;;9.63;;
11962;SDS011;62678;52.130;5.584;2023-04-24T03:44:51;11.38;;;9.98;;
11962;SDS011;62678;52.130;5.584;2023-04-24T03:47:18;11.35;;;10.15;;
11962;SDS011;62678;52.130;5.584;2023-04-24T03:49:46;11.02;;;9.82;;
11962;SDS011;62678;52.130;5.584;2023-04-24T03:52:13;10.40;;;9.40;;
11962;SDS011;62678;52.130;5.584;2023-04-24T03:54:40;10.50;;;9.40;;
11962;SDS011;62678;52.130;5.584;2023-04-24T03:57:07;9.75;;;8.77;;
11962;SDS011;62678;52.130;5.584;2023-04-24T03:59:36;9.98;;;8.82;;
11962;SDS011;62678;52.130;5.584;2023-04-24T04:02:03;9.27;;;8.38;;
11962;SDS011;62678;52.130;5.584;2023-04-24T04:04:30;8.52;;;7.65;;
11962;SDS011;62678;52.130;5.584;2023-04-24T04:06:57;8.00;;;7.20;;
11962;SDS011;62678;52.130;5.584;2023-04-24T04:09:26;8.57;;;7.75;;
11962;SDS011;62678;52.130;5.584;2023-04-24T04:11:53;7.32;;;6.60;;
11962;SDS011;62678;52.130;5.584;2023-04-24T04:14:20;8.48;;;6.38;;
11962;SDS011;62678;52.130;5.584;2023-04-24T04:16:49;7.13;;;6.43;;
11962;SDS011;62678;52.130;5.584;2023-04-24T04:19:16;6.35;;;5.38;;
11962;SDS011;62678;52.130;5.584;2023-04-24T04:21:43;5.38;;;4.70;;
11962;SDS011;62678;52.130;5.584;2023-04-24T04:24:10;4.53;;;4.15;;
11962;SDS011;62678;52.130;5.584;2023-04-24T04:26:38;4.10;;;3.70;;
11962;SDS011;62678;52.130;5.584;2023-04-24T04:29:05;4.03;;;3.72;;
11962;SDS011;62678;52.130;5.584;2023-04-24T04:31:32;5.40;;;4.22;;
11962;SDS011;62678;52.130;5.584;2023-04-24T04:34:01;4.65;;;4.25;;
11962;SDS011;62678;52.130;5.584;2023-04-24T04:36:28;5.40;;;4.38;;
11962;SDS011;62678;52.130;5.584;2023-04-24T04:38:56;5.35;;;4.90;;
11962;SDS011;62678;52.130;5.584;2023-04-24T04:41:24;5.35;;;4.93;;
11962;SDS011;62678;52.130;5.584;2023-04-24T04:43:51;6.68;;;6.00;;
11962;SDS011;62678;52.130;5.584;2023-04-24T04:46:19;7.07;;;6.15;;
11962;SDS011;62678;52.130;5.584;2023-04-24T04:48:46;6.03;;;5.43;;
11962;SDS011;62678;52.130;5.584;2023-04-24T04:51:15;6.07;;;5.55;;
11962;SDS011;62678;52.130;5.584;2023-04-24T04:53:42;5.13;;;4.72;;
11962;SDS011;62678;52.130;5.584;2023-04-24T04:56:09;5.15;;;4.63;;
11962;SDS011;62678;52.130;5.584;2023-04-24T04:58:37;5.00;;;4.50;;
11962;SDS011;62678;52.130;5.584;2023-04-24T05:01:04;4.90;;;4.50;;
11962;SDS011;62678;52.130;5.584;2023-04-24T05:03:31;6.38;;;4.50;;
11962;SDS011;62678;52.130;5.584;2023-04-24T05:05:58;4.80;;;4.10;;
11962;SDS011;62678;52.130;5.584;2023-04-24T05:08:27;4.93;;;4.15;;
11962;SDS011;62678;52.130;5.584;2023-04-24T05:10:54;4.00;;;3.67;;
11962;SDS011;62678;52.130;5.584;2023-04-24T05:13:21;3.85;;;3.55;;
11962;SDS011;62678;52.130;5.584;2023-04-24T05:15:49;3.83;;;3.53;;
11962;SDS011;62678;52.130;5.584;2023-04-24T05:18:16;4.97;;;4.07;;
11962;SDS011;62678;52.130;5.584;2023-04-24T05:20:43;4.22;;;3.83;;
11962;SDS011;62678;52.130;5.584;2023-04-24T05:23:10;4.85;;;4.35;;
11962;SDS011;62678;52.130;5.584;2023-04-24T05:25:39;5.45;;;4.60;;
11962;SDS011;62678;52.130;5.584;2023-04-24T05:28:06;5.75;;;4.57;;
11962;SDS011;62678;52.130;5.584;2023-04-24T05:30:33;5.53;;;5.03;;
11962;SDS011;62678;52.130;5.584;2023-04-24T05:33:01;6.88;;;5.30;;
11962;SDS011;62678;52.130;5.584;2023-04-24T05:35:28;6.78;;;6.07;;
11962;SDS011;62678;52.130;5.584;2023-04-24T05:37:56;7.05;;;6.25;;
11962;SDS011;62678;52.130;5.584;2023-04-24T05:40:23;6.70;;;6.00;;
11962;SDS011;62678;52.130;5.584;2023-04-24T05:42:51;7.35;;;5.82;;
11962;SDS011;62678;52.130;5.584;2023-04-24T05:45:18;8.13;;;5.75;;
11962;SDS011;62678;52.130;5.584;2023-04-24T05:47:45;6.57;;;5.97;;
11962;SDS011;62678;52.130;5.584;2023-04-24T05:50:13;7.75;;;6.35;;
11962;SDS011;62678;52.130;5.584;2023-04-24T05:52:40;8.13;;;5.93;;
11962;SDS011;62678;52.130;5.584;2023-04-24T05:55:07;8.50;;;5.50;;
11962;SDS011;62678;52.130;5.584;2023-04-24T05:57:34;7.45;;;5.45;;
11962;SDS011;62678;52.130;5.584;2023-04-24T06:00:03;6.88;;;5.20;;
11962;SDS011;62678;52.130;5.584;2023-04-24T06:02:33;7.97;;;5.55;;
11962;SDS011;62678;52.130;5.584;2023-04-24T06:05:01;6.80;;;5.20;;
11962;SDS011;62678;52.130;5.584;2023-04-24T06:07:29;6.50;;;5.90;;
11962;SDS011;62678;52.130;5.584;2023-04-24T06:09:56;6.78;;;5.80;;
11962;SDS011;62678;52.130;5.584;2023-04-24T06:12:25;7.78;;;6.25;;
11962;SDS011;62678;52.130;5.584;2023-04-24T06:14:52;8.85;;;6.80;;
11962;SDS011;62678;52.130;5.584;2023-04-24T06:17:21;8.88;;;6.95;;
11962;SDS011;62678;52.130;5.584;2023-04-24T06:19:48;9.25;;;7.20;;
11962;SDS011;62678;52.130;5.584;2023-04-24T06:22:15;11.73;;;7.80;;
11962;SDS011;62678;52.130;5.584;2023-04-24T06:24:42;10.68;;;7.05;;
11962;SDS011;62678;52.130;5.584;2023-04-24T06:27:10;12.27;;;7.55;;
11962;SDS011;62678;52.130;5.584;2023-04-24T06:29:37;10.40;;;7.03;;
11962;SDS011;62678;52.130;5.584;2023-04-24T06:32:04;10.13;;;6.55;;
11962;SDS011;62678;52.130;5.584;2023-04-24T06:34:33;8.25;;;6.15;;
11962;SDS011;62678;52.130;5.584;2023-04-24T06:37:01;11.77;;;6.30;;
11962;SDS011;62678;52.130;5.584;2023-04-24T06:39:29;10.13;;;6.72;;
11962;SDS011;62678;52.130;5.584;2023-04-24T06:41:56;9.75;;;6.43;;
11962;SDS011;62678;52.130;5.584;2023-04-24T06:44:23;11.15;;;6.43;;
11962;SDS011;62678;52.130;5.584;2023-04-24T06:46:50;11.07;;;6.13;;
11962;SDS011;62678;52.130;5.584;2023-04-24T06:49:18;7.05;;;5.07;;
11962;SDS011;62678;52.130;5.584;2023-04-24T06:51:46;7.97;;;4.85;;
11962;SDS011;62678;52.130;5.584;2023-04-24T06:54:13;5.88;;;3.80;;
11962;SDS011;62678;52.130;5.584;2023-04-24T06:56:40;5.93;;;4.32;;
11962;SDS011;62678;52.130;5.584;2023-04-24T06:59:13;7.93;;;4.93;;
11962;SDS011;62678;52.130;5.584;2023-04-24T07:01:40;9.73;;;6.07;;
11962;SDS011;62678;52.130;5.584;2023-04-24T07:04:07;13.40;;;8.88;;
11962;SDS011;62678;52.130;5.584;2023-04-24T07:06:34;21.30;;;12.65;;
11962;SDS011;62678;52.130;5.584;2023-04-24T07:09:04;22.17;;;14.55;;
11962;SDS011;62678;52.130;5.584;2023-04-24T07:11:31;27.88;;;16.42;;
11962;SDS011;62678;52.130;5.584;2023-04-24T07:13:59;24.83;;;15.85;;
11962;SDS011;62678;52.130;5.584;2023-04-24T07:16:26;27.50;;;15.82;;
11962;SDS011;62678;52.130;5.584;2023-04-24T07:18:53;25.67;;;15.82;;
11962;SDS011;62678;52.130;5.584;2023-04-24T07:21:20;27.58;;;17.60;;
11962;SDS011;62678;52.130;5.584;2023-04-24T07:23:48;24.73;;;16.23;;
11962;SDS011;62678;52.130;5.584;2023-04-24T07:26:16;26.77;;;16.67;;
11962;SDS011;62678;52.130;5.584;2023-04-24T07:28:47;26.52;;;17.40;;
11962;SDS011;62678;52.130;5.584;2023-04-24T07:31:14;30.67;;;18.60;;
11962;SDS011;62678;52.130;5.584;2023-04-24T07:33:41;27.17;;;18.58;;
11962;SDS011;62678;52.130;5.584;2023-04-24T07:36:08;28.50;;;18.30;;
11962;SDS011;62678;52.130;5.584;2023-04-24T07:38:40;29.77;;;18.52;;
11962;SDS011;62678;52.130;5.584;2023-04-24T07:41:07;32.00;;;20.50;;
11962;SDS011;62678;52.130;5.584;2023-04-24T07:43:36;32.00;;;20.15;;
11962;SDS011;62678;52.130;5.584;2023-04-24T07:46:03;29.75;;;19.92;;
11962;SDS011;62678;52.130;5.584;2023-04-24T07:48:30;26.30;;;17.23;;
11962;SDS011;62678;52.130;5.584;2023-04-24T07:50:57;31.80;;;18.48;;
11962;SDS011;62678;52.130;5.584;2023-04-24T07:53:25;31.90;;;17.45;;
11962;SDS011;62678;52.130;5.584;2023-04-24T07:55:53;26.75;;;15.75;;
11962;SDS011;62678;52.130;5.584;2023-04-24T07:58:21;30.17;;;16.05;;
11962;SDS011;62678;52.130;5.584;2023-04-24T08:00:49;26.77;;;15.45;;
11962;SDS011;62678;52.130;5.584;2023-04-24T08:03:17;26.73;;;16.63;;
11962;SDS011;62678;52.130;5.584;2023-04-24T08:05:45;30.58;;;19.13;;
11962;SDS011;62678;52.130;5.584;2023-04-24T08:08:16;33.45;;;18.50;;
11962;SDS011;62678;52.130;5.584;2023-04-24T08:10:43;28.45;;;17.25;;
11962;SDS011;62678;52.130;5.584;2023-04-24T08:13:12;29.63;;;16.80;;
11962;SDS011;62678;52.130;5.584;2023-04-24T08:15:39;30.50;;;17.83;;
11962;SDS011;62678;52.130;5.584;2023-04-24T08:18:08;26.92;;;16.15;;
11962;SDS011;62678;52.130;5.584;2023-04-24T08:20:37;36.22;;;18.95;;
11962;SDS011;62678;52.130;5.584;2023-04-24T08:23:04;30.27;;;17.73;;
11962;SDS011;62678;52.130;5.584;2023-04-24T08:25:31;29.35;;;18.70;;
11962;SDS011;62678;52.130;5.584;2023-04-24T08:28:01;34.67;;;18.38;;
11962;SDS011;62678;52.130;5.584;2023-04-24T08:30:29;24.85;;;13.68;;
11962;SDS011;62678;52.130;5.584;2023-04-24T08:32:56;25.17;;;13.90;;
11962;SDS011;62678;52.130;5.584;2023-04-24T08:35:24;24.67;;;12.50;;
11962;SDS011;62678;52.130;5.584;2023-04-24T08:37:52;25.77;;;13.10;;
11962;SDS011;62678;52.130;5.584;2023-04-24T08:40:20;28.30;;;14.20;;
11962;SDS011;62678;52.130;5.584;2023-04-24T08:42:54;28.52;;;12.68;;
11962;SDS011;62678;52.130;5.584;2023-04-24T08:45:22;31.38;;;12.60;;
11962;SDS011;62678;52.130;5.584;2023-04-24T08:47:52;29.80;;;12.80;;
11962;SDS011;62678;52.130;5.584;2023-04-24T08:50:19;20.80;;;10.52;;
11962;SDS011;62678;52.130;5.584;2023-04-24T08:52:48;24.48;;;8.50;;
11962;SDS011;62678;52.130;5.584;2023-04-24T08:55:18;20.60;;;7.20;;
11962;SDS011;62678;52.130;5.584;2023-04-24T08:57:46;18.73;;;8.05;;
11962;SDS011;62678;52.130;5.584;2023-04-24T09:00:17;25.00;;;8.75;;
11962;SDS011;62678;52.130;5.584;2023-04-24T09:02:46;21.25;;;9.27;;
11962;SDS011;62678;52.130;5.584;2023-04-24T09:05:16;26.65;;;9.23;;
11962;SDS011;62678;52.130;5.584;2023-04-24T09:07:44;24.67;;;10.05;;
11962;SDS011;62678;52.130;5.584;2023-04-24T09:10:16;28.25;;;9.80;;
11962;SDS011;62678;52.130;5.584;2023-04-24T09:12:43;28.08;;;8.70;;
11962;SDS011;62678;52.130;5.584;2023-04-24T09:15:11;26.60;;;6.68;;
11962;SDS011;62678;52.130;5.584;2023-04-24T09:17:38;21.08;;;5.65;;
11962;SDS011;62678;52.130;5.584;2023-04-24T09:20:06;20.38;;;4.80;;
11962;SDS011;62678;52.130;5.584;2023-04-24T09:22:34;14.60;;;4.10;;
11962;SDS011;62678;52.130;5.584;2023-04-24T09:25:03;13.18;;;3.30;;
11962;SDS011;62678;52.130;5.584;2023-04-24T09:27:34;15.43;;;3.60;;
11962;SDS011;62678;52.130;5.584;2023-04-24T09:30:01;14.38;;;3.70;;
11962;SDS011;62678;52.130;5.584;2023-04-24T09:32:29;18.15;;;4.05;;
11962;SDS011;62678;52.130;5.584;2023-04-24T09:35:07;16.40;;;3.78;;
11962;SDS011;62678;52.130;5.584;2023-04-24T09:37:36;11.73;;;3.95;;
11962;SDS011;62678;52.130;5.584;2023-04-24T09:40:14;14.18;;;3.55;;
11962;SDS011;62678;52.130;5.584;2023-04-24T09:42:51;14.10;;;3.20;;
11962;SDS011;62678;52.130;5.584;2023-04-24T09:45:19;15.02;;;3.38;;
11962;SDS011;62678;52.130;5.584;2023-04-24T09:47:47;17.13;;;4.82;;
11962;SDS011;62678;52.130;5.584;2023-04-24T09:50:19;10.15;;;2.75;;
11962;SDS011;62678;52.130;5.584;2023-04-24T09:52:47;10.73;;;3.10;;
11962;SDS011;62678;52.130;5.584;2023-04-24T09:55:24;10.65;;;3.38;;
11962;SDS011;62678;52.130;5.584;2023-04-24T09:57:54;12.32;;;3.13;;
11962;SDS011;62678;52.130;5.584;2023-04-24T10:00:22;12.88;;;3.00;;
11962;SDS011;62678;52.130;5.584;2023-04-24T10:02:54;11.88;;;3.42;;
11962;SDS011;62678;52.130;5.584;2023-04-24T10:05:28;9.98;;;2.95;;
11962;SDS011;62678;52.130;5.584;2023-04-24T10:07:59;13.82;;;3.70;;
11962;SDS011;62678;52.130;5.584;2023-04-24T10:10:28;14.20;;;3.70;;
11962;SDS011;62678;52.130;5.584;2023-04-24T10:12:57;10.20;;;3.30;;
11962;SDS011;62678;52.130;5.584;2023-04-24T10:15:26;11.38;;;3.00;;
11962;SDS011;62678;52.130;5.584;2023-04-24T10:17:53;13.75;;;2.78;;
11962;SDS011;62678;52.130;5.584;2023-04-24T10:20:21;19.58;;;4.20;;
11962;SDS011;62678;52.130;5.584;2023-04-24T10:22:51;10.50;;;2.80;;
11962;SDS011;62678;52.130;5.584;2023-04-24T10:25:21;12.52;;;2.88;;
11962;SDS011;62678;52.130;5.584;2023-04-24T10:27:52;12.48;;;2.97;;
11962;SDS011;62678;52.130;5.584;2023-04-24T10:30:26;8.65;;;2.42;;
11962;SDS011;62678;52.130;5.584;2023-04-24T10:32:55;12.68;;;3.10;;
11962;SDS011;62678;52.130;5.584;2023-04-24T10:35:25;8.00;;;2.60;;
11962;SDS011;62678;52.130;5.584;2023-04-24T10:37:54;8.93;;;2.45;;
11962;SDS011;62678;52.130;5.584;2023-04-24T10:40:25;10.10;;;2.67;;
11962;SDS011;62678;52.130;5.584;2023-04-24T10:42:56;9.63;;;2.45;;
11962;SDS011;62678;52.130;5.584;2023-04-24T10:45:23;12.13;;;2.40;;
11962;SDS011;62678;52.130;5.584;2023-04-24T10:48:01;6.80;;;2.00;;
11962;SDS011;62678;52.130;5.584;2023-04-24T10:50:29;5.75;;;1.67;;
11962;SDS011;62678;52.130;5.584;2023-04-24T10:53:12;4.55;;;1.40;;
11962;SDS011;62678;52.130;5.584;2023-04-24T10:55:43;5.32;;;1.10;;
11962;SDS011;62678;52.130;5.584;2023-04-24T10:58:14;5.13;;;1.17;;
11962;SDS011;62678;52.130;5.584;2023-04-24T11:00:46;3.63;;;1.35;;
11962;SDS011;62678;52.130;5.584;2023-04-24T11:03:23;6.95;;;1.17;;
11962;SDS011;62678;52.130;5.584;2023-04-24T11:05:54;5.22;;;1.67;;
11962;SDS011;62678;52.130;5.584;2023-04-24T11:08:23;2.63;;;0.95;;
11962;SDS011;62678;52.130;5.584;2023-04-24T11:10:56;4.47;;;1.30;;
11962;SDS011;62678;52.130;5.584;2023-04-24T11:13:36;4.82;;;1.25;;
11962;SDS011;62678;52.130;5.584;2023-04-24T11:16:32;4.75;;;1.33;;
11962;SDS011;62678;52.130;5.584;2023-04-24T11:19:04;6.55;;;1.33;;
11962;SDS011;62678;52.130;5.584;2023-04-24T11:21:39;7.82;;;1.98;;
11962;SDS011;62678;52.130;5.584;2023-04-24T11:24:23;3.67;;;1.48;;
11962;SDS011;62678;52.130;5.584;2023-04-24T11:26:52;4.88;;;1.35;;
11962;SDS011;62678;52.130;5.584;2023-04-24T11:29:20;4.68;;;1.65;;
11962;SDS011;62678;52.130;5.584;2023-04-24T11:31:49;7.38;;;1.77;;
11962;SDS011;62678;52.130;5.584;2023-04-24T11:34:17;8.05;;;2.10;;
11962;SDS011;62678;52.130;5.584;2023-04-24T11:36:44;6.30;;;1.85;;
11962;SDS011;62678;52.130;5.584;2023-04-24T11:39:13;6.55;;;2.08;;
11962;SDS011;62678;52.130;5.584;2023-04-24T11:41:40;5.22;;;1.73;;
11962;SDS011;62678;52.130;5.584;2023-04-24T11:44:08;8.20;;;1.77;;
11962;SDS011;62678;52.130;5.584;2023-04-24T11:46:36;4.65;;;1.50;;
11962;SDS011;62678;52.130;5.584;2023-04-24T11:49:06;7.82;;;1.65;;
11962;SDS011;62678;52.130;5.584;2023-04-24T11:51:33;6.30;;;1.40;;
11962;SDS011;62678;52.130;5.584;2023-04-24T11:54:01;4.18;;;1.55;;
11962;SDS011;62678;52.130;5.584;2023-04-24T11:56:28;5.10;;;1.23;;
11962;SDS011;62678;52.130;5.584;2023-04-24T11:58:55;9.38;;;1.25;;
11962;SDS011;62678;52.130;5.584;2023-04-24T12:01:23;6.85;;;1.30;;
11962;SDS011;62678;52.130;5.584;2023-04-24T12:03:50;2.97;;;0.98;;
11962;SDS011;62678;52.130;5.584;2023-04-24T12:06:27;7.28;;;1.08;;
11962;SDS011;62678;52.130;5.584;2023-04-24T12:08:54;3.28;;;1.00;;
11962;SDS011;62678;52.130;5.584;2023-04-24T12:11:23;3.28;;;0.98;;
11962;SDS011;62678;52.130;5.584;2023-04-24T12:13:51;4.72;;;1.27;;
11962;SDS011;62678;52.130;5.584;2023-04-24T12:16:19;3.22;;;0.70;;
11962;SDS011;62678;52.130;5.584;2023-04-24T12:18:46;1.17;;;0.50;;
11962;SDS011;62678;52.130;5.584;2023-04-24T12:21:19;2.70;;;1.02;;
11962;SDS011;62678;52.130;5.584;2023-04-24T12:23:49;1.88;;;0.68;;
11962;SDS011;62678;52.130;5.584;2023-04-24T12:26:17;2.45;;;0.80;;
11962;SDS011;62678;52.130;5.584;2023-04-24T12:28:46;1.45;;;0.77;;
11962;SDS011;62678;52.130;5.584;2023-04-24T12:31:16;2.33;;;0.82;;
11962;SDS011;62678;52.130;5.584;2023-04-24T12:33:43;5.18;;;1.40;;
11962;SDS011;62678;52.130;5.584;2023-04-24T12:36:10;7.03;;;1.20;;
11962;SDS011;62678;52.130;5.584;2023-04-24T12:38:43;5.72;;;1.30;;
11962;SDS011;62678;52.130;5.584;2023-04-24T12:41:13;5.15;;;1.15;;
11962;SDS011;62678;52.130;5.584;2023-04-24T12:43:50;4.13;;;1.25;;
11962;SDS011;62678;52.130;5.584;2023-04-24T12:46:19;7.15;;;1.45;;
11962;SDS011;62678;52.130;5.584;2023-04-24T12:48:46;7.38;;;1.33;;
11962;SDS011;62678;52.130;5.584;2023-04-24T12:51:13;8.55;;;1.60;;
11962;SDS011;62678;52.130;5.584;2023-04-24T12:53:43;5.13;;;1.40;;
11962;SDS011;62678;52.130;5.584;2023-04-24T12:56:10;4.25;;;1.42;;
11962;SDS011;62678;52.130;5.584;2023-04-24T12:58:38;7.90;;;1.58;;
11962;SDS011;62678;52.130;5.584;2023-04-24T13:01:06;7.32;;;1.50;;
11962;SDS011;62678;52.130;5.584;2023-04-24T13:03:33;4.88;;;1.52;;
11962;SDS011;62678;52.130;5.584;2023-04-24T13:06:00;7.13;;;1.90;;
11962;SDS011;62678;52.130;5.584;2023-04-24T13:08:27;8.25;;;1.90;;
11962;SDS011;62678;52.130;5.584;2023-04-24T13:10:54;11.25;;;2.50;;
11962;SDS011;62678;52.130;5.584;2023-04-24T13:13:21;8.85;;;1.83;;
11962;SDS011;62678;52.130;5.584;2023-04-24T13:15:50;13.38;;;2.58;;
11962;SDS011;62678;52.130;5.584;2023-04-24T13:18:17;12.20;;;2.33;;
11962;SDS011;62678;52.130;5.584;2023-04-24T13:20:45;13.25;;;2.83;;
11962;SDS011;62678;52.130;5.584;2023-04-24T13:23:12;10.27;;;2.50;;
11962;SDS011;62678;52.130;5.584;2023-04-24T13:25:40;15.88;;;3.15;;
11962;SDS011;62678;52.130;5.584;2023-04-24T13:28:07;11.30;;;2.55;;
11962;SDS011;62678;52.130;5.584;2023-04-24T13:30:35;12.80;;;2.83;;
11962;SDS011;62678;52.130;5.584;2023-04-24T13:33:04;10.07;;;2.65;;
11962;SDS011;62678;52.130;5.584;2023-04-24T13:35:32;12.77;;;3.03;;
11962;SDS011;62678;52.130;5.584;2023-04-24T13:37:59;12.63;;;2.92;;
11962;SDS011;62678;52.130;5.584;2023-04-24T13:40:30;10.65;;;2.30;;
11962;SDS011;62678;52.130;5.584;2023-04-24T13:42:57;13.88;;;2.60;;
11962;SDS011;62678;52.130;5.584;2023-04-24T13:45:24;14.98;;;2.72;;
11962;SDS011;62678;52.130;5.584;2023-04-24T13:47:51;11.23;;;2.40;;
11962;SDS011;62678;52.130;5.584;2023-04-24T13:50:21;8.50;;;2.55;;
11962;SDS011;62678;52.130;5.584;2023-04-24T13:52:48;11.10;;;2.70;;
11962;SDS011;62678;52.130;5.584;2023-04-24T13:55:16;11.82;;;3.38;;
11962;SDS011;62678;52.130;5.584;2023-04-24T13:57:43;16.98;;;3.08;;
11962;SDS011;62678;52.130;5.584;2023-04-24T14:00:10;11.27;;;2.50;;
11962;SDS011;62678;52.130;5.584;2023-04-24T14:02:38;11.23;;;3.00;;
11962;SDS011;62678;52.130;5.584;2023-04-24T14:05:05;12.75;;;3.05;;
11962;SDS011;62678;52.130;5.584;2023-04-24T14:07:33;15.18;;;2.92;;
11962;SDS011;62678;52.130;5.584;2023-04-24T14:10:00;12.73;;;3.28;;
11962;SDS011;62678;52.130;5.584;2023-04-24T14:12:27;15.95;;;3.85;;
11962;SDS011;62678;52.130;5.584;2023-04-24T14:14:54;15.85;;;4.95;;
11962;SDS011;62678;52.130;5.584;2023-04-24T14:17:21;14.25;;;4.07;;
11962;SDS011;62678;52.130;5.584;2023-04-24T14:19:48;13.05;;;3.58;;
11962;SDS011;62678;52.130;5.584;2023-04-24T14:22:15;15.05;;;3.65;;
11962;SDS011;62678;52.130;5.584;2023-04-24T14:24:43;8.80;;;2.88;;
11962;SDS011;62678;52.130;5.584;2023-04-24T14:27:10;11.45;;;3.03;;
11962;SDS011;62678;52.130;5.584;2023-04-24T14:29:37;10.27;;;2.58;;
11962;SDS011;62678;52.130;5.584;2023-04-24T14:32:04;8.63;;;2.72;;
11962;SDS011;62678;52.130;5.584;2023-04-24T14:34:31;11.75;;;3.03;;
11962;SDS011;62678;52.130;5.584;2023-04-24T14:36:58;15.50;;;3.50;;
11962;SDS011;62678;52.130;5.584;2023-04-24T14:39:25;11.90;;;2.90;;
11962;SDS011;62678;52.130;5.584;2023-04-24T14:41:53;15.35;;;3.42;;
11962;SDS011;62678;52.130;5.584;2023-04-24T14:44:20;11.48;;;3.75;;
11962;SDS011;62678;52.130;5.584;2023-04-24T14:46:51;38.80;;;15.60;;